Time;durP1;ratioP1;P1;durP2;ratioP2;P2;SDS_P1;SDS_P2;PMS_P1;PMS_P2;Temp;Humidity;BMP_temperature;BMP_pressure;BME280_temperature;BME280_humidity;BME280_pressure;Samples;Min_cycle;Max_cycle;Signal;HPM_P1;HPM_P2
2021/04/12 00:00:06;;;;;;;;;;;;;;;;;;5032187;28;1151;-57
2021/04/12 00:02:49;;;;;;;;;;;;;;;;;;5070165;28;835;-58
2021/04/12 00:05:23;;;;;;;;;;;;;;;;;;5070636;28;1922;-58
2021/04/12 00:08:00;;;;;;;;;;;;;;;;;;5070657;28;834;-58
2021/04/12 00:10:32;;;;;;;;;;;;;;;;;;5069772;28;818;-58
2021/04/12 00:13:10;;;;;;;;;;;;;;;;;;5069581;28;889;-57
2021/04/12 00:15:49;;;;;;;;;;;;;;;;;;5069780;28;863;-58
2021/04/12 00:18:37;;;;;;;;;;;;;;;;;;5070255;28;1044;-58
2021/04/12 00:21:22;;;;;;;;;;;;;;;;;;5070057;28;877;-58
2021/04/12 00:24:04;;;;;;;;;;;;;;;;;;5048383;28;1172;-58
2021/04/12 00:26:35;;;;;;;;;;;;;;;;;;5069290;28;1894;-59
2021/04/12 00:29:06;;;;;;;;;;;;;;;;;;5069766;28;830;-57
2021/04/12 00:31:37;;;;;;;;;;;;;;;;;;5069228;28;794;-58
2021/04/12 00:34:06;;;;;;;;;;;;;;;;;;5069292;28;858;-57
2021/04/12 00:36:44;;;;;;;;;;;;;;;;;;5069738;28;854;-57
2021/04/12 00:39:22;;;;;;;;;;;;;;;;;;5068965;28;851;-57
2021/04/12 00:41:57;;;;;;;;;;;;;;;;;;5070461;28;889;-58
2021/04/12 00:44:31;;;;;;;;;;;;;;;;;;5069304;28;1959;-58
2021/04/12 00:47:16;;;;;;;;;;;;;;;;;;5069616;28;873;-57
2021/04/12 00:50:05;;;;;;;;;;;;;;;;;;5074071;28;1103;-57
2021/04/12 00:52:30;;;;;;;;;;;;;;;;;;5089339;28;846;-58
2021/04/12 00:54:58;;;;;;;;;;;;;;;;;;5089585;28;814;-58
2021/04/12 00:57:24;;;;;;;;;;;;;;;;;;5089482;28;818;-58
2021/04/12 01:00:08;;;;;;;;;;;;;;;;;;5089354;28;830;-57
2021/04/12 01:02:52;;;;;;;;;;;;;;;;;;5086670;28;1018;-57
2021/04/12 01:05:36;;;;;;;;;;;;;;;;;;5089758;28;1906;-58
2021/04/12 01:08:13;;;;;;;;;;;;;;;;;;5088954;28;807;-58
2021/04/12 01:10:44;;;;;;;;;;;;;;;;;;5089506;28;806;-58
2021/04/12 01:13:09;;;;;;;;;;;;;;;;;;5089083;28;814;-58
2021/04/12 01:15:34;;;;;;;;;;;;;;;;;;5088679;28;809;-58
2021/04/12 01:18:14;;;;;;;;;;;;;;;;;;5087510;28;862;-58
2021/04/12 01:20:58;;;;;;;;;;;;;;;;;;5087121;28;838;-58
2021/04/12 01:23:36;;;;;;;;;;;;;;;;;;5088206;28;889;-58
2021/04/12 01:26:20;;;;;;;;;;;;;;;;;;5088564;28;1894;-58
2021/04/12 01:29:04;;;;;;;;;;;;;;;;;;5080392;28;1241;-58
2021/04/12 01:31:35;;;;;;;;;;;;;;;;;;5064750;28;2487;-57
2021/04/12 01:34:18;;;;;;;;;;;;;;;;;;5058009;28;890;-58
2021/04/12 01:36:52;;;;;;;;;;;;;;;;;;5067958;28;838;-58
2021/04/12 01:39:29;;;;;;;;;;;;;;;;;;5068697;28;839;-57
2021/04/12 01:42:03;;;;;;;;;;;;;;;;;;5067794;28;838;-58
2021/04/12 01:44:43;;;;;;;;;;;;;;;;;;5068040;28;1955;-58
2021/04/12 01:47:16;;;;;;;;;;;;;;;;;;5066717;28;819;-58
2021/04/12 01:49:52;;;;;;;;;;;;;;;;;;5072201;28;1079;-58
2021/04/12 01:52:38;;;;;;;;;;;;;;;;;;5089001;28;858;-58
2021/04/12 01:55:10;;;;;;;;;;;;;;;;;;5087522;28;822;-58
2021/04/12 01:57:54;;;;;;;;;;;;;;;;;;5087512;28;906;-58
2021/04/12 02:00:46;;;;;;;;;;;;;;;;;;5062220;28;2001;-58
2021/04/12 02:03:40;;;;;;;;;;;;;;;;;;5046952;28;815;-58
2021/04/12 02:06:23;;;;;;;;;;;;;;;;;;5047675;28;1898;-58
2021/04/12 02:09:07;;;;;;;;;;;;;;;;;;5048834;28;830;-58
2021/04/12 02:11:33;;;;;;;;;;;;;;;;;;5047202;28;858;-58
2021/04/12 02:14:01;;;;;;;;;;;;;;;;;;5047436;28;846;-57
2021/04/12 02:16:45;;;;;;;;;;;;;;;;;;5047194;28;811;-58
2021/04/12 02:19:27;;;;;;;;;;;;;;;;;;5047534;28;889;-58
2021/04/12 02:22:17;;;;;;;;;;;;;;;;;;5047383;28;1020;-57
2021/04/12 02:25:05;;;;;;;;;;;;;;;;;;5047593;28;1965;-58
2021/04/12 02:27:49;;;;;;;;;;;;;;;;;;5046781;28;894;-58
2021/04/12 02:30:36;;;;;;;;;;;;;;;;;;5046365;28;929;-58
2021/04/12 02:33:20;;;;;;;;;;;;;;;;;;5046549;28;830;-59
2021/04/12 02:35:58;;;;;;;;;;;;;;;;;;5047879;28;850;-57
2021/04/12 02:38:29;;;;;;;;;;;;;;;;;;5046539;28;965;-58
2021/04/12 02:41:00;;;;;;;;;;;;;;;;;;5047589;28;910;-58
2021/04/12 02:43:35;;;;;;;;;;;;;;;;;;5047384;28;846;-58
2021/04/12 02:46:00;;;;;;;;;;;;;;;;;;5046185;28;1894;-58
2021/04/12 02:48:44;;;;;;;;;;;;;;;;;;5046867;28;889;-58
2021/04/12 02:51:12;;;;;;;;;;;;;;;;;;5082750;28;1099;-58
2021/04/12 02:53:50;;;;;;;;;;;;;;;;;;5087127;28;810;-58
2021/04/12 02:56:22;;;;;;;;;;;;;;;;;;5087356;28;805;-57
2021/04/12 02:59:06;;;;;;;;;;;;;;;;;;5088202;28;877;-57
2021/04/12 03:01:52;;;;;;;;;;;;;;;;;;5083117;28;1137;-58
2021/04/12 03:04:25;;;;;;;;;;;;;;;;;;5087306;28;877;-58
2021/04/12 03:07:09;;;;;;;;;;;;;;;;;;5087285;28;909;-58
2021/04/12 03:09:40;;;;;;;;;;;;;;;;;;5086944;28;918;-57
2021/04/12 03:12:17;;;;;;;;;;;;;;;;;;5086948;28;802;-58
2021/04/12 03:15:01;;;;;;;;;;;;;;;;;;5087262;28;845;-58
2021/04/12 03:17:45;;;;;;;;;;;;;;;;;;5086681;28;807;-58
2021/04/12 03:20:16;;;;;;;;;;;;;;;;;;5086438;28;873;-59
2021/04/12 03:22:41;;;;;;;;;;;;;;;;;;5086642;28;798;-57
2021/04/12 03:25:30;;;;;;;;;;;;;;;;;;5086762;28;2299;-58
2021/04/12 03:28:14;;;;;;;;;;;;;;;;;;5080411;28;1071;-57
2021/04/12 03:30:59;;;;;;;;;;;;;;;;;;5086663;28;826;-57
2021/04/12 03:33:40;;;;;;;;;;;;;;;;;;5086884;28;826;-58
2021/04/12 03:36:06;;;;;;;;;;;;;;;;;;5072491;28;1706;-58
2021/04/12 03:38:36;;;;;;;;;;;;;;;;;;5066795;28;831;-58
2021/04/12 03:41:13;;;;;;;;;;;;;;;;;;5066195;28;831;-58
2021/04/12 03:43:59;;;;;;;;;;;;;;;;;;5066239;28;831;-58
2021/04/12 03:46:27;;;;;;;;;;;;;;;;;;5066156;28;1898;-58
2021/04/12 03:49:14;;;;;;;;;;;;;;;;;;5067208;28;889;-57
2021/04/12 03:51:51;;;;;;;;;;;;;;;;;;5046383;28;839;-58
2021/04/12 03:54:21;;;;;;;;;;;;;;;;;;5046533;28;874;-57
2021/04/12 03:56:56;;;;;;;;;;;;;;;;;;5047195;28;870;-58
2021/04/12 03:59:33;;;;;;;;;;;;;;;;;;5044799;28;861;-59
2021/04/12 04:02:09;;;;;;;;;;;;;;;;;;5045931;28;858;-58
2021/04/12 04:04:35;;;;;;;;;;;;;;;;;;5046256;28;1977;-58
2021/04/12 04:07:06;;;;;;;;;;;;;;;;;;5045780;28;834;-58
2021/04/12 04:09:45;;;;;;;;;;;;;;;;;;5046014;28;881;-58
2021/04/12 04:12:31;;;;;;;;;;;;;;;;;;5046602;28;934;-58
2021/04/12 04:15:14;;;;;;;;;;;;;;;;;;5038136;28;1259;-58
2021/04/12 04:17:40;;;;;;;;;;;;;;;;;;5049700;28;834;-58
2021/04/12 04:20:05;;;;;;;;;;;;;;;;;;5049532;28;893;-58
2021/04/12 04:22:47;;;;;;;;;;;;;;;;;;5049882;28;842;-58
2021/04/12 04:25:25;;;;;;;;;;;;;;;;;;5049702;28;1947;-58
2021/04/12 04:28:00;;;;;;;;;;;;;;;;;;5049773;28;826;-58
2021/04/12 04:30:31;;;;;;;;;;;;;;;;;;5050398;28;881;-58
2021/04/12 04:33:15;;;;;;;;;;;;;;;;;;5049555;28;838;-57
2021/04/12 04:35:59;;;;;;;;;;;;;;;;;;5049929;28;830;-57
2021/04/12 04:38:47;;;;;;;;;;;;;;;;;;5050239;28;861;-58
2021/04/12 04:41:31;;;;;;;;;;;;;;;;;;5049192;28;826;-58
2021/04/12 04:44:14;;;;;;;;;;;;;;;;;;5048802;28;846;-58
2021/04/12 04:46:58;;;;;;;;;;;;;;;;;;5049359;28;1990;-59
2021/04/12 04:49:35;;;;;;;;;;;;;;;;;;5054583;28;1032;-59
2021/04/12 04:52:18;;;;;;;;;;;;;;;;;;5089110;28;838;-59
2021/04/12 04:54:44;;;;;;;;;;;;;;;;;;5088316;28;941;-57
2021/04/12 04:57:09;;;;;;;;;;;;;;;;;;5089067;28;881;-58
2021/04/12 04:59:35;;;;;;;;;;;;;;;;;;5087604;28;897;-58
2021/04/12 05:02:19;;;;;;;;;;;;;;;;;;5088310;28;842;-58
2021/04/12 05:05:03;;;;;;;;;;;;;;;;;;5088540;28;1901;-58
2021/04/12 05:07:52;;;;;;;;;;;;;;;;;;5089147;28;826;-58
2021/04/12 05:10:21;;;;;;;;;;;;;;;;;;5087411;28;1180;-58
2021/04/12 05:13:06;;;;;;;;;;;;;;;;;;5089490;28;822;-58
2021/04/12 05:15:56;;;;;;;;;;;;;;;;;;5088452;28;834;-58
2021/04/12 05:18:40;;;;;;;;;;;;;;;;;;5088476;28;889;-58
2021/04/12 05:21:19;;;;;;;;;;;;;;;;;;5088946;28;910;-58
2021/04/12 05:23:45;;;;;;;;;;;;;;;;;;5088380;28;890;-57
2021/04/12 05:26:16;;;;;;;;;;;;;;;;;;5088005;28;1894;-57
2021/04/12 05:29:00;;;;;;;;;;;;;;;;;;5088305;28;802;-58
2021/04/12 05:31:46;;;;;;;;;;;;;;;;;;5087906;28;861;-59
2021/04/12 05:34:17;;;;;;;;;;;;;;;;;;5088034;28;885;-58
2021/04/12 05:37:08;;;;;;;;;;;;;;;;;;5088655;28;803;-58
2021/04/12 05:39:34;;;;;;;;;;;;;;;;;;5088266;28;873;-58
2021/04/12 05:42:18;;;;;;;;;;;;;;;;;;5074885;28;1238;-58
2021/04/12 05:44:54;;;;;;;;;;;;;;;;;;5068451;28;1945;-58
2021/04/12 05:47:36;;;;;;;;;;;;;;;;;;5068804;28;783;-57
2021/04/12 05:50:24;;;;;;;;;;;;;;;;;;5076076;28;1142;-57
2021/04/12 05:53:11;;;;;;;;;;;;;;;;;;5069267;28;1196;-58
2021/04/12 05:56:00;;;;;;;;;;;;;;;;;;5065101;28;1292;-58
2021/04/12 05:58:35;;;;;;;;;;;;;;;;;;5065696;28;1219;-59
2021/04/12 06:01:19;;;;;;;;;;;;;;;;;;5067638;28;882;-58
2021/04/12 06:04:03;;;;;;;;;;;;;;;;;;5067689;28;846;-58
2021/04/12 06:06:38;;;;;;;;;;;;;;;;;;5067557;28;1979;-58
2021/04/12 06:09:15;;;;;;;;;;;;;;;;;;5067417;28;933;-58
2021/04/12 06:11:40;;;;;;;;;;;;;;;;;;5066286;28;1148;-58
2021/04/12 06:14:25;;;;;;;;;;;;;;;;;;5066860;28;905;-57
2021/04/12 06:17:01;;;;;;;;;;;;;;;;;;5068118;28;806;-58
2021/04/12 06:19:54;;;;;;;;;;;;;;;;;;5099924;28;845;-58
2021/04/12 06:22:32;;;;;;;;;;;;;;;;;;5070184;28;1102;-58
2021/04/12 06:25:12;;;;;;;;;;;;;;;;;;5067626;28;1890;-58
2021/04/12 06:27:43;;;;;;;;;;;;;;;;;;5067396;28;1244;-58
2021/04/12 06:30:40;;;;;;;;;;;;;;;;;;5046884;28;834;-57
2021/04/12 06:33:31;;;;;;;;;;;;;;;;;;5060490;28;1568;-57
2021/04/12 06:35:59;;;;;;;;;;;;;;;;;;5070582;28;1177;-58
2021/04/12 06:38:43;;;;;;;;;;;;;;;;;;5078561;28;1236;-57
2021/04/12 06:41:27;;;;;;;;;;;;;;;;;;5070424;28;1280;-57
2021/04/12 06:44:10;;;;;;;;;;;;;;;;;;5084587;28;1256;-58
2021/04/12 06:46:54;;;;;;;;;;;;;;;;;;5074332;28;1961;-58
2021/04/12 06:49:38;;;;;;;;;;;;;;;;;;5084843;28;1222;-57
2021/04/12 06:52:22;;;;;;;;;;;;;;;;;;5087462;28;905;-57
2021/04/12 06:54:47;;;;;;;;;;;;;;;;;;5087463;28;881;-57
2021/04/12 06:57:24;;;;;;;;;;;;;;;;;;5072950;28;1701;-57
2021/04/12 07:00:09;;;;;;;;;;;;;;;;;;5067390;28;1901;-56
2021/04/12 07:02:50;;;;;;;;;;;;;;;;;;5066175;28;1609;-58
2021/04/12 07:05:24;;;;;;;;;;;;;;;;;;5066071;28;1964;-58
2021/04/12 07:08:08;;;;;;;;;;;;;;;;;;5067322;28;889;-57
2021/04/12 07:10:36;;;;;;;;;;;;;;;;;;5059249;28;1048;-57
2021/04/12 07:13:21;;;;;;;;;;;;;;;;;;5065948;28;1052;-57
2021/04/12 07:15:58;;;;;;;;;;;;;;;;;;5066364;28;1418;-56
2021/04/12 07:18:33;;;;;;;;;;;;;;;;;;5066787;28;850;-56
2021/04/12 07:21:01;;;;;;;;;;;;;;;;;;5066808;28;810;-59
2021/04/12 07:24:05;;;;;;;;;;;;;;;;;;5065944;28;1044;-55
2021/04/12 07:26:30;;;;;;;;;;;;;;;;;;5046000;28;1902;-57
2021/04/12 07:29:15;;;;;;;;;;;;;;;;;;5046433;28;839;-57
2021/04/12 07:32:00;;;;;;;;;;;;;;;;;;5053604;28;1788;-57
2021/04/12 07:34:37;;;;;;;;;;;;;;;;;;5066139;28;822;-57
2021/04/12 07:37:09;;;;;;;;;;;;;;;;;;5065832;28;818;-57
2021/04/12 07:39:52;;;;;;;;;;;;;;;;;;5065814;28;1210;-57
2021/04/12 07:42:37;;;;;;;;;;;;;;;;;;5067846;28;893;-58
2021/04/12 07:45:18;;;;;;;;;;;;;;;;;;5065583;28;1878;-58
2021/04/12 07:47:53;;;;;;;;;;;;;;;;;;5064404;28;1103;-57
2021/04/12 07:50:22;;;;;;;;;;;;;;;;;;5082151;28;1145;-58
2021/04/12 07:52:57;;;;;;;;;;;;;;;;;;5091489;28;830;-56
2021/04/12 07:55:31;;;;;;;;;;;;;;;;;;5086559;28;933;-57
2021/04/12 07:58:15;;;;;;;;;;;;;;;;;;5068869;28;1091;-57
2021/04/12 08:01:02;;;;;;;;;;;;;;;;;;5064814;28;1989;-57
2021/04/12 08:03:27;;;;;;;;;;;;;;;;;;5066510;28;1172;-56
2021/04/12 08:05:53;;;;;;;;;;;;;;;;;;5068952;28;1968;-57
2021/04/12 08:08:36;;;;;;;;;;;;;;;;;;5070459;28;1175;-57
2021/04/12 08:11:20;;;;;;;;;;;;;;;;;;5060750;28;1140;-57
2021/04/12 08:13:49;;;;;;;;;;;;;;;;;;5069989;28;1276;-57
2021/04/12 08:16:17;;;;;;;;;;;;;;;;;;5069950;28;896;-58
2021/04/12 08:18:49;;;;;;;;;;;;;;;;;;5069849;28;936;-58
2021/04/12 08:21:23;;;;;;;;;;;;;;;;;;5069370;28;902;-57
2021/04/12 08:23:48;;;;;;;;;;;;;;;;;;5070817;28;1341;-57
2021/04/12 08:26:32;;;;;;;;;;;;;;;;;;5069034;28;1955;-57
2021/04/12 08:29:16;;;;;;;;;;;;;;;;;;5066788;28;1143;-57
2021/04/12 08:32:00;;;;;;;;;;;;;;;;;;5060757;28;1211;-57
2021/04/12 08:34:34;;;;;;;;;;;;;;;;;;5053748;28;1160;-58
2021/04/12 08:37:09;;;;;;;;;;;;;;;;;;5068481;28;886;-57
2021/04/12 08:39:46;;;;;;;;;;;;;;;;;;5067476;28;1364;-57
2021/04/12 08:42:21;;;;;;;;;;;;;;;;;;5068901;28;1147;-57
2021/04/12 08:45:15;;;;;;;;;;;;;;;;;;5069654;28;1967;-56
2021/04/12 08:47:43;;;;;;;;;;;;;;;;;;5060087;28;1356;-57
2021/04/12 08:50:18;;;;;;;;;;;;;;;;;;5055943;27;11982;-56
2021/04/12 08:53:07;;;;;;;;;;;;;;;;;;5040516;28;12333;-57
2021/04/12 08:55:45;;;;;;;;;;;;;;;;;;5008963;28;894;-57
2021/04/12 08:58:17;;;;;;;;;;;;;;;;;;5008549;28;807;-57
2021/04/12 09:01:00;;;;;;;;;;;;;;;;;;5009310;28;909;-56
2021/04/12 09:03:32;;;;;;;;;;;;;;;;;;5009136;28;822;-57
2021/04/12 09:06:06;;;;;;;;;;;;;;;;;;5020232;28;1910;-57
2021/04/12 09:08:57;;;;;;;;;;;;;;;;;;5027787;28;1593;-57
2021/04/12 09:11:41;;;;;;;;;;;;;;;;;;5022103;28;1232;-56
2021/04/12 09:14:25;;;;;;;;;;;;;;;;;;5029201;28;1073;-56
2021/04/12 09:17:17;;;;;;;;;;;;;;;;;;5002018;28;1530;-56
2021/04/12 09:20:01;;;;;;;;;;;;;;;;;;5028236;28;1044;-57
2021/04/12 09:22:48;;;;;;;;;;;;;;;;;;5035462;28;891;-56
2021/04/12 09:25:37;;;;;;;;;;;;;;;;;;5033810;28;1963;-57
2021/04/12 09:28:21;;;;;;;;;;;;;;;;;;5044234;28;878;-57
2021/04/12 09:31:05;;;;;;;;;;;;;;;;;;5041115;28;1135;-56
2021/04/12 09:33:49;;;;;;;;;;;;;;;;;;5031746;28;1033;-57
2021/04/12 09:36:33;;;;;;;;;;;;;;;;;;5038715;28;1136;-55
2021/04/12 09:39:17;;;;;;;;;;;;;;;;;;5029130;28;1045;-56
2021/04/12 09:42:00;;;;;;;;;;;;;;;;;;5035422;28;976;-55
2021/04/12 09:44:46;;;;;;;;;;;;;;;;;;5035992;28;966;-57
2021/04/12 09:47:14;;;;;;;;;;;;;;;;;;5026849;28;1032;-56
2021/04/12 09:49:56;;;;;;;;;;;;;;;;;;5028917;28;1131;-56
2021/04/12 09:52:31;;;;;;;;;;;;;;;;;;5028904;28;1230;-57
2021/04/12 09:55:15;;;;;;;;;;;;;;;;;;5031339;28;1201;-56
2021/04/12 09:57:40;;;;;;;;;;;;;;;;;;5039837;28;985;-57
2021/04/12 10:00:24;;;;;;;;;;;;;;;;;;5043553;28;802;-57
2021/04/12 10:03:08;;;;;;;;;;;;;;;;;;5044798;28;856;-57
2021/04/12 10:05:39;;;;;;;;;;;;;;;;;;5039173;28;1910;-56
2021/04/12 10:08:18;;;;;;;;;;;;;;;;;;5028750;28;834;-56
2021/04/12 10:10:55;;;;;;;;;;;;;;;;;;5026126;28;1124;-56
2021/04/12 10:13:41;;;;;;;;;;;;;;;;;;5028025;28;865;-56
2021/04/12 10:16:06;;;;;;;;;;;;;;;;;;5032992;28;992;-56
2021/04/12 10:18:40;;;;;;;;;;;;;;;;;;5027896;28;811;-56
2021/04/12 10:21:08;;;;;;;;;;;;;;;;;;5028039;28;827;-57
2021/04/12 10:23:34;;;;;;;;;;;;;;;;;;5027178;28;819;-56
2021/04/12 10:26:05;;;;;;;;;;;;;;;;;;5039088;28;1906;-56
2021/04/12 10:28:35;;;;;;;;;;;;;;;;;;5042694;28;842;-57
2021/04/12 10:31:07;;;;;;;;;;;;;;;;;;5027151;28;899;-57
2021/04/12 10:33:40;;;;;;;;;;;;;;;;;;5027433;28;890;-59
2021/04/12 10:36:08;;;;;;;;;;;;;;;;;;5027282;28;945;-57
2021/04/12 10:38:37;;;;;;;;;;;;;;;;;;5025779;28;1143;-57
2021/04/12 10:41:23;;;;;;;;;;;;;;;;;;5026165;28;1173;-56
2021/04/12 10:44:07;;;;;;;;;;;;;;;;;;5026758;28;1192;-57
2021/04/12 10:46:38;;;;;;;;;;;;;;;;;;5027028;28;1921;-57
2021/04/12 10:49:07;;;;;;;;;;;;;;;;;;5031021;28;1777;-57
2021/04/12 10:51:44;;;;;;;;;;;;;;;;;;5029124;28;1123;-56
2021/04/12 10:54:28;;;;;;;;;;;;;;;;;;5046732;28;815;-56
2021/04/12 10:56:56;;;;;;;;;;;;;;;;;;5034595;28;1183;-57
2021/04/12 10:59:40;;;;;;;;;;;;;;;;;;5026080;28;1343;-56
2021/04/12 11:02:38;;;;;;;;;;;;;;;;;;5026611;28;1313;-56
2021/04/12 11:05:03;;;;;;;;;;;;;;;;;;5026944;28;1959;-56
2021/04/12 11:07:44;;;;;;;;;;;;;;;;;;5027953;28;1245;-56
2021/04/12 11:10:16;;;;;;;;;;;;;;;;;;5059324;28;1295;-56
2021/04/12 11:13:01;;;;;;;;;;;;;;;;;;5027057;28;1193;-56
2021/04/12 11:15:35;;;;;;;;;;;;;;;;;;5026753;28;1155;-57
2021/04/12 11:18:10;;;;;;;;;;;;;;;;;;5024543;28;1034;-57
2021/04/12 11:20:45;;;;;;;;;;;;;;;;;;5026610;28;878;-56
2021/04/12 11:23:10;;;;;;;;;;;;;;;;;;5046347;28;1099;-57
2021/04/12 11:25:36;;;;;;;;;;;;;;;;;;5041213;28;1894;-57
2021/04/12 11:28:01;;;;;;;;;;;;;;;;;;5029505;28;1087;-56
2021/04/12 11:30:29;;;;;;;;;;;;;;;;;;5029905;28;1421;-57
2021/04/12 11:32:58;;;;;;;;;;;;;;;;;;5029450;28;1085;-58
2021/04/12 11:35:43;;;;;;;;;;;;;;;;;;5030870;28;1168;-57
2021/04/12 11:38:11;;;;;;;;;;;;;;;;;;5022386;28;1295;-56
2021/04/12 11:40:57;;;;;;;;;;;;;;;;;;5029709;28;1240;-56
2021/04/12 11:43:29;;;;;;;;;;;;;;;;;;5030828;28;1044;-57
2021/04/12 11:46:00;;;;;;;;;;;;;;;;;;5029811;28;1909;-57
2021/04/12 11:48:29;;;;;;;;;;;;;;;;;;5029632;28;1212;-57
2021/04/12 11:50:57;;;;;;;;;;;;;;;;;;5029899;28;922;-57
2021/04/12 11:53:43;;;;;;;;;;;;;;;;;;5030399;28;806;-57
2021/04/12 11:56:19;;;;;;;;;;;;;;;;;;5036923;28;1246;-57
2021/04/12 11:58:50;;;;;;;;;;;;;;;;;;5049921;28;929;-56
2021/04/12 12:01:22;;;;;;;;;;;;;;;;;;5050566;28;676;-56
2021/04/12 12:04:08;;;;;;;;;;;;;;;;;;5050598;28;877;-57
2021/04/12 12:06:45;;;;;;;;;;;;;;;;;;5032485;28;1922;-56
2021/04/12 12:09:15;;;;;;;;;;;;;;;;;;5030362;28;830;-56
2021/04/12 12:11:45;;;;;;;;;;;;;;;;;;5029267;28;1389;-57
2021/04/12 12:14:26;;;;;;;;;;;;;;;;;;5029416;28;850;-57
2021/04/12 12:16:54;;;;;;;;;;;;;;;;;;5030261;28;834;-56
2021/04/12 12:19:33;;;;;;;;;;;;;;;;;;5029068;28;1211;-56
2021/04/12 12:22:16;;;;;;;;;;;;;;;;;;5027671;28;819;-56
2021/04/12 12:25:00;;;;;;;;;;;;;;;;;;5029865;28;839;-57
2021/04/12 12:27:25;;;;;;;;;;;;;;;;;;5029369;28;831;-57
2021/04/12 12:29:53;;;;;;;;;;;;;;;;;;5029066;28;1208;-57
2021/04/12 12:32:36;;;;;;;;;;;;;;;;;;5029319;28;1002;-57
2021/04/12 12:35:11;;;;;;;;;;;;;;;;;;5026923;28;838;-56
2021/04/12 12:37:49;;;;;;;;;;;;;;;;;;5029487;28;839;-57
2021/04/12 12:40:44;;;;;;;;;;;;;;;;;;5029432;28;828;-57
2021/04/12 12:43:13;;;;;;;;;;;;;;;;;;5016518;28;1192;-57
2021/04/12 12:45:40;;;;;;;;;;;;;;;;;;5029540;28;1971;-57
2021/04/12 12:48:14;;;;;;;;;;;;;;;;;;5029605;28;860;-57
2021/04/12 12:50:51;;;;;;;;;;;;;;;;;;5029962;28;863;-58
2021/04/12 12:53:21;;;;;;;;;;;;;;;;;;5029730;28;811;-57
2021/04/12 12:56:04;;;;;;;;;;;;;;;;;;5033020;28;1226;-56
2021/04/12 12:58:31;;;;;;;;;;;;;;;;;;5049579;28;846;-57
2021/04/12 13:00:58;;;;;;;;;;;;;;;;;;5035220;28;1364;-57
2021/04/12 13:03:42;;;;;;;;;;;;;;;;;;5029196;28;874;-56
2021/04/12 13:06:20;;;;;;;;;;;;;;;;;;5029255;28;1966;-57
2021/04/12 13:09:18;;;;;;;;;;;;;;;;;;5029205;28;943;-58
2021/04/12 13:11:44;;;;;;;;;;;;;;;;;;4994972;28;1163;-57
2021/04/12 13:14:13;;;;;;;;;;;;;;;;;;5029188;28;823;-56
2021/04/12 13:16:39;;;;;;;;;;;;;;;;;;5029027;28;894;-56
2021/04/12 13:19:06;;;;;;;;;;;;;;;;;;5028758;28;870;-56
2021/04/12 13:21:34;;;;;;;;;;;;;;;;;;5028335;28;922;-56
2021/04/12 13:24:18;;;;;;;;;;;;;;;;;;5029056;28;863;-57
2021/04/12 13:26:52;;;;;;;;;;;;;;;;;;5044690;28;1901;-57
2021/04/12 13:29:20;;;;;;;;;;;;;;;;;;5046513;28;1198;-57
2021/04/12 13:31:48;;;;;;;;;;;;;;;;;;5026756;28;1958;-57
2021/04/12 13:34:19;;;;;;;;;;;;;;;;;;5028575;28;875;-57
2021/04/12 13:36:51;;;;;;;;;;;;;;;;;;5027805;28;1081;-57
2021/04/12 13:39:25;;;;;;;;;;;;;;;;;;5028763;28;906;-57
2021/04/12 13:41:51;;;;;;;;;;;;;;;;;;5027984;28;1347;-57
2021/04/12 13:44:21;;;;;;;;;;;;;;;;;;5027983;28;943;-57
2021/04/12 13:46:53;;;;;;;;;;;;;;;;;;5027927;28;1894;-56
2021/04/12 13:49:27;;;;;;;;;;;;;;;;;;5029388;28;1002;-57
2021/04/12 13:51:56;;;;;;;;;;;;;;;;;;5029009;28;810;-57
2021/04/12 13:54:33;;;;;;;;;;;;;;;;;;5028967;28;835;-57
2021/04/12 13:57:18;;;;;;;;;;;;;;;;;;5042354;28;1083;-57
2021/04/12 13:59:47;;;;;;;;;;;;;;;;;;5040157;28;1412;-57
2021/04/12 14:02:23;;;;;;;;;;;;;;;;;;5028112;28;819;-57
2021/04/12 14:04:51;;;;;;;;;;;;;;;;;;5029009;28;953;-57
2021/04/12 14:07:21;;;;;;;;;;;;;;;;;;5027308;28;878;-57
2021/04/12 14:09:52;;;;;;;;;;;;;;;;;;5027738;28;854;-57
2021/04/12 14:12:24;;;;;;;;;;;;;;;;;;5028235;28;795;-56
2021/04/12 14:15:10;;;;;;;;;;;;;;;;;;5028776;28;870;-57
2021/04/12 14:17:39;;;;;;;;;;;;;;;;;;5027608;28;969;-57
2021/04/12 14:20:16;;;;;;;;;;;;;;;;;;5027460;28;894;-58
2021/04/12 14:22:49;;;;;;;;;;;;;;;;;;5027815;28;885;-57
2021/04/12 14:25:18;;;;;;;;;;;;;;;;;;5027194;28;1922;-57
2021/04/12 14:27:44;;;;;;;;;;;;;;;;;;5027084;28;839;-56
2021/04/12 14:30:15;;;;;;;;;;;;;;;;;;5027492;28;1353;-56
2021/04/12 14:32:40;;;;;;;;;;;;;;;;;;5027480;28;815;-56
2021/04/12 14:35:09;;;;;;;;;;;;;;;;;;5027551;28;886;-58
2021/04/12 14:37:36;;;;;;;;;;;;;;;;;;5028015;28;830;-56
2021/04/12 14:40:13;;;;;;;;;;;;;;;;;;5027399;28;886;-56
2021/04/12 14:42:43;;;;;;;;;;;;;;;;;;5026944;28;918;-57
2021/04/12 14:45:10;;;;;;;;;;;;;;;;;;5026986;28;2003;-57
2021/04/12 14:47:37;;;;;;;;;;;;;;;;;;5027627;28;1120;-56
2021/04/12 14:50:02;;;;;;;;;;;;;;;;;;5027528;28;910;-56
2021/04/12 14:52:44;;;;;;;;;;;;;;;;;;5027397;28;827;-56
2021/04/12 14:55:22;;;;;;;;;;;;;;;;;;5027793;28;831;-58
2021/04/12 14:57:48;;;;;;;;;;;;;;;;;;5007857;28;815;-57
2021/04/12 15:00:14;;;;;;;;;;;;;;;;;;5021711;28;1342;-57
2021/04/12 15:02:39;;;;;;;;;;;;;;;;;;5027201;28;819;-56
2021/04/12 15:05:19;;;;;;;;;;;;;;;;;;5027217;28;1952;-56
2021/04/12 15:07:48;;;;;;;;;;;;;;;;;;5027171;28;1053;-57
2021/04/12 15:10:22;;;;;;;;;;;;;;;;;;5027411;28;925;-56
2021/04/12 15:12:54;;;;;;;;;;;;;;;;;;5028378;28;871;-56
2021/04/12 15:15:28;;;;;;;;;;;;;;;;;;5027841;28;791;-57
2021/04/12 15:17:55;;;;;;;;;;;;;;;;;;5026608;28;906;-56
2021/04/12 15:20:36;;;;;;;;;;;;;;;;;;5027942;28;862;-57
2021/04/12 15:23:10;;;;;;;;;;;;;;;;;;5029030;28;1128;-57
2021/04/12 15:25:56;;;;;;;;;;;;;;;;;;5026678;28;1942;-56
2021/04/12 15:28:24;;;;;;;;;;;;;;;;;;5027108;28;1226;-56
2021/04/12 15:30:55;;;;;;;;;;;;;;;;;;5027805;28;957;-57
2021/04/12 15:33:27;;;;;;;;;;;;;;;;;;5027647;28;827;-56
2021/04/12 15:36:04;;;;;;;;;;;;;;;;;;5026934;28;862;-58
2021/04/12 15:38:36;;;;;;;;;;;;;;;;;;5026887;28;826;-56
2021/04/12 15:41:10;;;;;;;;;;;;;;;;;;5026708;28;924;-56
2021/04/12 15:43:38;;;;;;;;;;;;;;;;;;5027078;28;877;-55
2021/04/12 15:46:08;;;;;;;;;;;;;;;;;;5026986;28;1898;-56
2021/04/12 15:48:33;;;;;;;;;;;;;;;;;;5026320;28;815;-56
2021/04/12 15:51:23;;;;;;;;;;;;;;;;;;5026905;28;877;-56
2021/04/12 15:54:01;;;;;;;;;;;;;;;;;;5024980;28;1095;-57
2021/04/12 15:56:30;;;;;;;;;;;;;;;;;;5036015;28;1108;-56
2021/04/12 15:59:10;;;;;;;;;;;;;;;;;;5036403;28;1243;-57
2021/04/12 16:01:55;;;;;;;;;;;;;;;;;;5026638;28;1215;-57
2021/04/12 16:04:33;;;;;;;;;;;;;;;;;;5027079;28;823;-57
2021/04/12 16:07:06;;;;;;;;;;;;;;;;;;5026075;28;1985;-57
2021/04/12 16:09:32;;;;;;;;;;;;;;;;;;5025758;28;1548;-56
2021/04/12 16:11:59;;;;;;;;;;;;;;;;;;5025738;28;874;-57
2021/04/12 16:14:36;;;;;;;;;;;;;;;;;;5030032;28;827;-57
2021/04/12 16:17:18;;;;;;;;;;;;;;;;;;5030181;28;791;-56
2021/04/12 16:19:45;;;;;;;;;;;;;;;;;;5030306;28;850;-57
2021/04/12 16:22:29;;;;;;;;;;;;;;;;;;5030107;28;831;-57
2021/04/12 16:25:04;;;;;;;;;;;;;;;;;;5029780;28;1073;-56
2021/04/12 16:27:31;;;;;;;;;;;;;;;;;;5028834;28;894;-56
2021/04/12 16:30:15;;;;;;;;;;;;;;;;;;5029582;28;1381;-57
2021/04/12 16:32:44;;;;;;;;;;;;;;;;;;5029746;28;858;-55
2021/04/12 16:35:12;;;;;;;;;;;;;;;;;;5028641;28;1840;-56
2021/04/12 16:37:41;;;;;;;;;;;;;;;;;;5029290;28;1760;-56
2021/04/12 16:40:17;;;;;;;;;;;;;;;;;;5029244;28;1701;-55
2021/04/12 16:42:43;;;;;;;;;;;;;;;;;;5029335;28;1566;-56
2021/04/12 16:45:13;;;;;;;;;;;;;;;;;;5029055;28;1977;-56
2021/04/12 16:47:42;;;;;;;;;;;;;;;;;;5029264;28;802;-56
2021/04/12 16:50:20;;;;;;;;;;;;;;;;;;5028891;28;946;-55
2021/04/12 16:52:47;;;;;;;;;;;;;;;;;;5028880;28;1435;-56
2021/04/12 16:55:22;;;;;;;;;;;;;;;;;;5028865;28;1144;-56
2021/04/12 16:57:53;;;;;;;;;;;;;;;;;;5011204;28;1636;-54
2021/04/12 17:00:29;;;;;;;;;;;;;;;;;;5036742;28;1586;-56
2021/04/12 17:02:55;;;;;;;;;;;;;;;;;;5031633;28;932;-56
2021/04/12 17:05:24;;;;;;;;;;;;;;;;;;5042749;28;1996;-56
2021/04/12 17:07:56;;;;;;;;;;;;;;;;;;5038461;28;992;-56
2021/04/12 17:10:48;;;;;;;;;;;;;;;;;;5044884;28;1575;-56
2021/04/12 17:13:25;;;;;;;;;;;;;;;;;;5043636;28;854;-56
2021/04/12 17:16:09;;;;;;;;;;;;;;;;;;5041150;28;996;-56
2021/04/12 17:18:57;;;;;;;;;;;;;;;;;;5029195;28;1325;-56
2021/04/12 17:21:25;;;;;;;;;;;;;;;;;;5026680;28;1245;-56
2021/04/12 17:23:55;;;;;;;;;;;;;;;;;;5041135;28;983;-55
2021/04/12 17:26:40;;;;;;;;;;;;;;;;;;5033375;28;1909;-55
2021/04/12 17:29:08;;;;;;;;;;;;;;;;;;4985979;28;1426;-56
2021/04/12 17:31:46;;;;;;;;;;;;;;;;;;5030167;28;996;-55
2021/04/12 17:34:11;;;;;;;;;;;;;;;;;;5035406;28;1028;-55
2021/04/12 17:36:52;;;;;;;;;;;;;;;;;;5031682;28;954;-56
2021/04/12 17:39:35;;;;;;;;;;;;;;;;;;5036662;28;969;-56
2021/04/12 17:42:03;;;;;;;;;;;;;;;;;;5036842;28;866;-55
2021/04/12 17:44:34;;;;;;;;;;;;;;;;;;5035407;28;1522;-56
2021/04/12 17:47:02;;;;;;;;;;;;;;;;;;5028864;28;1968;-55
2021/04/12 17:49:27;;;;;;;;;;;;;;;;;;5028929;28;1084;-56
2021/04/12 17:51:56;;;;;;;;;;;;;;;;;;5028808;28;807;-56
2021/04/12 17:54:30;;;;;;;;;;;;;;;;;;5033235;28;1254;-56
2021/04/12 17:56:59;;;;;;;;;;;;;;;;;;5029123;28;978;-55
2021/04/12 17:59:28;;;;;;;;;;;;;;;;;;5027566;28;1105;-56
2021/04/12 18:01:55;;;;;;;;;;;;;;;;;;5027392;28;1192;-55
2021/04/12 18:04:24;;;;;;;;;;;;;;;;;;5027713;28;918;-56
2021/04/12 18:06:53;;;;;;;;;;;;;;;;;;5028459;28;1933;-55
2021/04/12 18:09:18;;;;;;;;;;;;;;;;;;5026099;28;1168;-56
2021/04/12 18:11:54;;;;;;;;;;;;;;;;;;5024816;28;1096;-56
2021/04/12 18:14:22;;;;;;;;;;;;;;;;;;5018474;28;1222;-56